Time;durP1;ratioP1;P1;durP2;ratioP2;P2;SDS_P1;SDS_P2;PMS_P1;PMS_P2;Temp;Humidity;BMP_temperature;BMP_pressure;BME280_temperature;BME280_humidity;BME280_pressure;Samples;Min_cycle;Max_cycle;Signal;HPM_P1;HPM_P2
2022/12/01 00:01:06;;;;;;;5.25;4.75;;;17.30;65.70;;;;;;4992861;28;20295;-69
2022/12/01 00:03:32;;;;;;;5.70;5.18;;;17.30;65.60;;;;;;4976702;28;20280;-70
2022/12/01 00:06:10;;;;;;;5.60;5.10;;;17.30;65.70;;;;;;4976956;28;20216;-69
2022/12/01 00:08:36;;;;;;;6.32;5.10;;;17.30;65.70;;;;;;5009123;28;20267;-70
2022/12/01 00:11:05;;;;;;;5.97;5.18;;;17.30;65.70;;;;;;4993738;28;20212;-69
2022/12/01 00:13:32;;;;;;;5.22;4.72;;;17.40;65.80;;;;;;4992626;28;20380;-69
2022/12/01 00:16:12;;;;;;;5.57;5.05;;;17.30;65.60;;;;;;5008982;28;20185;-69
2022/12/01 00:18:38;;;;;;;5.55;5.05;;;17.30;65.60;;;;;;4992391;28;20256;-70
2022/12/01 00:21:04;;;;;;;5.65;5.15;;;17.30;65.60;;;;;;4992656;28;20678;-70
2022/12/01 00:23:30;;;;;;;5.72;5.15;;;17.30;65.70;;;;;;4976260;28;20693;-70
2022/12/01 00:26:04;;;;;;;5.75;5.25;;;17.30;65.60;;;;;;4992607;28;20220;-69
2022/12/01 00:28:30;;;;;;;6.15;5.60;;;17.30;65.50;;;;;;4992335;28;20223;-69
2022/12/01 00:30:55;;;;;;;5.45;4.93;;;17.30;65.50;;;;;;4992482;28;20196;-69
2022/12/01 00:33:21;;;;;;;5.35;4.85;;;17.30;65.50;;;;;;5009077;28;20188;-70
2022/12/01 00:35:47;;;;;;;6.78;5.22;;;17.30;65.50;;;;;;5008972;28;20184;-70
2022/12/01 00:38:13;;;;;;;5.55;4.70;;;17.30;65.40;;;;;;4992158;28;20566;-70
2022/12/01 00:40:39;;;;;;;5.90;5.30;;;17.30;65.50;;;;;;4976187;28;20208;-70
2022/12/01 00:43:05;;;;;;;4.97;4.47;;;17.30;65.40;;;;;;4975949;28;20264;-69
2022/12/01 00:45:30;;;;;;;5.90;5.30;;;17.30;65.50;;;;;;4992364;28;20193;-70
2022/12/01 00:47:56;;;;;;;6.00;5.40;;;17.30;65.20;;;;;;4976053;28;20272;-69
2022/12/01 00:50:22;;;;;;;6.05;5.45;;;17.30;65.30;;;;;;5008500;28;20208;-70
2022/12/01 00:52:47;;;;;;;6.40;5.63;;;17.30;65.50;;;;;;4975814;28;20189;-69
2022/12/01 00:55:13;;;;;;;5.63;5.13;;;17.30;65.50;;;;;;4975857;28;20224;-70
2022/12/01 00:57:40;;;;;;;5.90;5.30;;;17.30;65.50;;;;;;4975677;28;20280;-70
2022/12/01 01:00:06;;;;;;;6.07;5.50;;;17.30;65.40;;;;;;4975403;28;20282;-70
2022/12/01 01:02:32;;;;;;;5.82;5.25;;;17.30;65.40;;;;;;5008296;28;20180;-70
2022/12/01 01:04:58;;;;;;;6.00;5.30;;;17.30;65.40;;;;;;4975926;28;20193;-69
2022/12/01 01:07:23;;;;;;;5.75;5.15;;;17.30;65.40;;;;;;5008012;28;20188;-69
2022/12/01 01:09:50;;;;;;;6.05;5.25;;;17.30;65.40;;;;;;4991898;28;20232;-69
2022/12/01 01:12:16;;;;;;;5.68;5.07;;;17.30;65.40;;;;;;5008298;28;20224;-69
2022/12/01 01:14:42;;;;;;;6.07;5.30;;;17.30;65.40;;;;;;4975911;28;20201;-69
2022/12/01 01:17:07;;;;;;;5.53;4.95;;;17.30;65.40;;;;;;4992748;28;20177;-70
2022/12/01 01:19:33;;;;;;;5.85;5.35;;;17.30;65.30;;;;;;5007980;28;20212;-69
2022/12/01 01:21:59;;;;;;;6.15;5.55;;;17.30;65.30;;;;;;4991787;28;20189;-70
2022/12/01 01:24:24;;;;;;;6.38;5.78;;;17.30;65.30;;;;;;5008566;28;20243;-70
2022/12/01 01:26:50;;;;;;;6.18;5.57;;;17.30;65.40;;;;;;4975319;28;20195;-69
2022/12/01 01:29:16;;;;;;;6.07;5.47;;;17.30;65.30;;;;;;5007836;28;20242;-69
2022/12/01 01:31:42;;;;;;;6.25;5.65;;;17.30;65.20;;;;;;4991683;28;20243;-70
2022/12/01 01:34:07;;;;;;;5.75;5.15;;;17.30;65.20;;;;;;4975276;28;20189;-69
2022/12/01 01:36:33;;;;;;;6.15;5.55;;;17.30;65.10;;;;;;4975255;28;20185;-69
2022/12/01 01:39:00;;;;;;;6.00;5.40;;;17.30;65.20;;;;;;5007935;28;20189;-69
2022/12/01 01:41:25;;;;;;;6.43;5.82;;;17.30;65.20;;;;;;4975437;28;20216;-70
2022/12/01 01:44:02;;;;;;;6.43;5.72;;;17.30;65.30;;;;;;5007850;28;20197;-70
2022/12/01 01:46:33;;;;;;;5.72;5.03;;;17.30;65.20;;;;;;5007911;28;20283;-69
2022/12/01 01:49:08;;;;;;;6.72;5.95;;;17.30;65.40;;;;;;4991730;28;20213;-69
2022/12/01 01:51:45;;;;;;;5.78;5.28;;;17.30;65.20;;;;;;5008078;28;20251;-70
2022/12/01 01:54:18;;;;;;;6.40;5.60;;;17.30;65.20;;;;;;5008083;28;20188;-69
2022/12/01 01:56:46;;;;;;;6.75;6.00;;;17.30;65.30;;;;;;4975051;28;20180;-69
2022/12/01 01:59:20;;;;;;;6.55;5.95;;;17.30;65.30;;;;;;4975122;28;20193;-69
2022/12/01 02:01:54;;;;;;;6.57;5.65;;;17.30;65.20;;;;;;5007740;28;20279;-69
2022/12/01 02:04:23;;;;;;;6.43;5.82;;;17.30;65.10;;;;;;4995147;28;20220;-69
2022/12/01 02:06:50;;;;;;;6.20;5.38;;;17.30;65.10;;;;;;5012035;28;20164;-69
2022/12/01 02:09:16;;;;;;;6.38;5.72;;;17.30;65.20;;;;;;5010737;28;20208;-70
2022/12/01 02:12:24;;;;;;;6.18;5.68;;;17.30;65.10;;;;;;5012591;28;20283;-70
2022/12/01 02:15:26;;;;;;;6.53;5.70;;;17.30;65.90;;;;;;5014862;28;20168;-69
2022/12/01 02:18:04;;;;;;;6.40;5.80;;;17.30;65.20;;;;;;5015358;28;20223;-70
2022/12/01 02:21:07;;;;;;;6.47;5.60;;;17.30;65.20;;;;;;5015677;28;20234;-70
2022/12/01 02:24:16;;;;;;;6.40;5.80;;;17.30;65.20;;;;;;5030850;28;20283;-69
2022/12/01 02:27:29;;;;;;;6.88;6.13;;;17.30;65.10;;;;;;5014400;28;20226;-69
2022/12/01 02:30:13;;;;;;;6.03;5.43;;;17.30;65.20;;;;;;5014316;28;20216;-68
2022/12/01 02:33:00;;;;;;;6.15;5.55;;;17.30;65.00;;;;;;5030897;28;20176;-70
2022/12/01 02:35:47;;;;;;;6.75;5.80;;;17.30;65.10;;;;;;5015362;28;20172;-70
2022/12/01 02:38:40;;;;;;;6.18;5.57;;;17.30;65.10;;;;;;5030535;28;20180;-70
2022/12/01 02:41:35;;;;;;;6.28;5.68;;;17.30;65.10;;;;;;5014007;28;20212;-70
2022/12/01 02:44:15;;;;;;;6.20;5.60;;;17.30;65.10;;;;;;5030568;28;20603;-70
2022/12/01 02:46:53;;;;;;;6.40;5.78;;;17.30;65.00;;;;;;5029725;28;20707;-68
2022/12/01 02:49:29;;;;;;;6.68;6.07;;;17.30;65.10;;;;;;5030470;28;20211;-69
2022/12/01 02:51:57;;;;;;;6.05;5.45;;;17.30;65.10;;;;;;5014171;28;20274;-69
2022/12/01 02:54:28;;;;;;;5.75;5.25;;;17.30;65.10;;;;;;5030535;28;20194;-69
2022/12/01 02:56:53;;;;;;;6.07;5.47;;;17.30;65.10;;;;;;5013572;28;20246;-69
2022/12/01 02:59:19;;;;;;;5.95;5.35;;;17.30;65.00;;;;;;5013585;28;20184;-69
2022/12/01 03:01:56;;;;;;;6.45;5.85;;;17.30;65.00;;;;;;5013587;28;20188;-69
2022/12/01 03:05:20;;;;;;;5.47;4.95;;;17.30;65.00;;;;;;5013883;28;20219;-70
2022/12/01 03:08:13;;;;;;;5.78;5.25;;;17.30;65.10;;;;;;5013708;28;20181;-70
2022/12/01 03:10:52;;;;;;;6.88;5.55;;;17.30;65.00;;;;;;5026632;22;20228;-68
2022/12/01 03:13:39;;;;;;;6.05;5.45;;;17.30;65.10;;;;;;5013613;28;20180;-68
2022/12/01 03:16:23;;;;;;;5.80;5.20;;;17.30;65.10;;;;;;5013367;28;20192;-68
2022/12/01 03:19:15;;;;;;;6.45;5.85;;;17.30;65.00;;;;;;4997175;28;20191;-68
2022/12/01 03:22:03;;;;;;;6.18;5.57;;;17.30;65.00;;;;;;4997536;28;20216;-68
2022/12/01 03:24:32;;;;;;;6.05;5.43;;;17.30;65.00;;;;;;4992860;28;20189;-68
2022/12/01 03:27:01;;;;;;;5.75;5.20;;;17.30;65.10;;;;;;4976980;28;20296;-68
2022/12/01 03:29:38;;;;;;;5.20;4.75;;;17.30;65.10;;;;;;4993503;28;20212;-68
2022/12/01 03:32:35;;;;;;;6.03;5.43;;;17.30;65.10;;;;;;4993434;28;20589;-67
2022/12/01 03:35:21;;;;;;;6.00;5.40;;;17.30;65.10;;;;;;4993824;28;20189;-68
2022/12/01 03:38:21;;;;;;;5.85;5.28;;;17.30;65.00;;;;;;4993270;28;20181;-68
2022/12/01 03:40:52;;;;;;;5.90;5.15;;;17.30;65.00;;;;;;4993272;28;20205;-68
2022/12/01 03:43:25;;;;;;;5.97;5.38;;;17.30;65.00;;;;;;4993301;28;20192;-69
2022/12/01 03:46:16;;;;;;;5.50;5.00;;;17.30;65.00;;;;;;4977066;28;20220;-68
2022/12/01 03:48:43;;;;;;;5.47;4.97;;;17.30;65.00;;;;;;4992996;28;20680;-68
2022/12/01 03:51:44;;;;;;;5.57;5.07;;;17.30;65.10;;;;;;4993820;28;20254;-69
2022/12/01 03:55:00;;;;;;;5.88;5.28;;;17.30;65.00;;;;;;5012836;28;20187;-68
2022/12/01 03:57:41;;;;;;;5.60;5.10;;;17.30;65.00;;;;;;5013674;28;20188;-68
2022/12/01 04:00:10;;;;;;;5.93;5.32;;;17.30;65.00;;;;;;5012577;28;20705;-68
2022/12/01 04:02:39;;;;;;;5.65;5.15;;;17.30;65.00;;;;;;5012966;28;20192;-68
2022/12/01 04:05:08;;;;;;;5.85;5.25;;;17.30;64.90;;;;;;5012745;28;20192;-67
2022/12/01 04:07:35;;;;;;;5.68;5.18;;;17.30;65.00;;;;;;5013410;28;20184;-69
2022/12/01 04:10:01;;;;;;;6.05;5.45;;;17.30;65.00;;;;;;5012360;28;20275;-68
2022/12/01 04:12:31;;;;;;;6.00;5.40;;;17.30;65.00;;;;;;5012482;28;20173;-68
2022/12/01 04:15:11;;;;;;;5.53;5.03;;;17.30;65.00;;;;;;5012261;28;20188;-68
2022/12/01 04:17:38;;;;;;;5.60;5.10;;;17.30;64.90;;;;;;5012400;28;20195;-68
2022/12/01 04:20:06;;;;;;;5.65;4.97;;;17.30;64.90;;;;;;5013396;28;20211;-68
2022/12/01 04:22:32;;;;;;;6.28;5.68;;;17.30;64.90;;;;;;5012147;28;20245;-68
2022/12/01 04:24:58;;;;;;;5.82;5.22;;;17.30;65.00;;;;;;5012190;28;20188;-68
2022/12/01 04:27:24;;;;;;;5.93;5.38;;;17.30;64.90;;;;;;5012045;28;20215;-68
2022/12/01 04:29:50;;;;;;;5.75;5.15;;;17.20;64.90;;;;;;5011916;28;20219;-68
2022/12/01 04:32:16;;;;;;;5.50;5.00;;;17.30;65.00;;;;;;4995897;28;20218;-68
2022/12/01 04:34:42;;;;;;;5.45;4.95;;;17.30;65.00;;;;;;5011714;28;20230;-67
2022/12/01 04:37:08;;;;;;;5.50;5.00;;;17.30;65.00;;;;;;5012001;28;20267;-68
2022/12/01 04:39:35;;;;;;;5.50;5.00;;;17.30;65.00;;;;;;4995533;28;20238;-68
2022/12/01 04:42:01;;;;;;;5.25;4.75;;;17.30;64.90;;;;;;5011639;28;20204;-68
2022/12/01 04:44:27;;;;;;;5.88;5.38;;;17.30;64.90;;;;;;4997566;28;20224;-67
2022/12/01 04:46:53;;;;;;;5.70;5.10;;;17.30;64.90;;;;;;4975802;28;20266;-68
2022/12/01 04:49:20;;;;;;;5.45;4.95;;;17.30;65.00;;;;;;4992035;28;20220;-68
2022/12/01 04:51:46;;;;;;;5.28;4.65;;;17.30;64.90;;;;;;4992138;28;20232;-68
2022/12/01 04:54:13;;;;;;;5.80;5.20;;;17.30;64.90;;;;;;4992017;28;20185;-66
2022/12/01 04:56:38;;;;;;;5.40;4.90;;;17.30;65.00;;;;;;4991962;28;20271;-68
2022/12/01 04:59:04;;;;;;;5.57;5.00;;;17.30;64.90;;;;;;5004719;28;20222;-67
2022/12/01 05:01:30;;;;;;;5.40;4.90;;;17.30;64.90;;;;;;5011767;28;20200;-68
2022/12/01 05:03:56;;;;;;;5.20;4.70;;;17.30;64.90;;;;;;5011521;28;20701;-68
2022/12/01 05:06:25;;;;;;;6.00;5.40;;;17.30;64.90;;;;;;5011447;28;20195;-67
2022/12/01 05:08:56;;;;;;;5.38;4.88;;;17.30;64.90;;;;;;5011449;28;20239;-69
2022/12/01 05:11:22;;;;;;;5.55;4.95;;;17.30;64.90;;;;;;5011625;28;20575;-67
2022/12/01 05:13:49;;;;;;;5.70;5.20;;;17.30;64.90;;;;;;5011424;28;20578;-67
2022/12/01 05:16:20;;;;;;;5.75;5.15;;;17.30;64.80;;;;;;5011614;28;20206;-68
2022/12/01 05:21:42;;;;;;;5.32;4.82;;;17.30;64.90;;;;;;5011322;28;20208;-67
2022/12/01 05:24:11;;;;;;;5.20;4.70;;;17.30;64.90;;;;;;5011407;28;20238;-68
2022/12/01 05:26:38;;;;;;;5.72;5.20;;;17.30;64.90;;;;;;5012511;28;20219;-68
2022/12/01 05:29:04;;;;;;;5.57;5.07;;;17.30;64.90;;;;;;5011066;28;20346;-68
2022/12/01 05:31:30;;;;;;;4.78;4.38;;;17.30;64.90;;;;;;5011520;28;20200;-68
2022/12/01 05:33:56;;;;;;;5.38;4.85;;;17.30;64.90;;;;;;5000689;28;20212;-68
2022/12/01 05:36:22;;;;;;;5.00;4.55;;;17.30;64.90;;;;;;4991892;28;20312;-68
2022/12/01 05:38:48;;;;;;;5.15;4.65;;;17.30;64.90;;;;;;4991463;28;20193;-69
2022/12/01 05:41:14;;;;;;;5.13;4.63;;;17.30;64.80;;;;;;4991603;28;20211;-68
2022/12/01 05:43:40;;;;;;;5.55;5.05;;;17.30;64.90;;;;;;4991714;28;20201;-68
2022/12/01 05:46:06;;;;;;;5.00;4.50;;;17.30;64.80;;;;;;4993973;28;20212;-67
2022/12/01 05:48:32;;;;;;;5.10;4.60;;;17.30;64.80;;;;;;4996539;28;20216;-67
2022/12/01 05:50:57;;;;;;;5.00;4.50;;;17.30;64.80;;;;;;4995695;28;20197;-68
2022/12/01 05:53:23;;;;;;;4.80;4.30;;;17.30;64.80;;;;;;4996550;28;20180;-68
2022/12/01 05:55:53;;;;;;;5.70;4.97;;;17.30;64.90;;;;;;4979035;28;20292;-68
2022/12/01 05:58:22;;;;;;;5.30;4.80;;;17.30;64.80;;;;;;4995135;28;20192;-67
2022/12/01 06:00:48;;;;;;;4.35;3.95;;;17.30;64.80;;;;;;4978905;28;20714;-67
2022/12/01 06:03:14;;;;;;;4.45;3.92;;;17.30;64.70;;;;;;4978980;28;20212;-68
2022/12/01 06:05:40;;;;;;;5.43;4.93;;;17.30;64.80;;;;;;4995348;28;20193;-68
2022/12/01 06:08:06;;;;;;;5.05;4.55;;;17.30;64.90;;;;;;4995975;28;20192;-69
2022/12/01 06:10:31;;;;;;;6.70;4.95;;;17.30;64.70;;;;;;4995025;28;20224;-69
2022/12/01 06:12:57;;;;;;;5.10;4.60;;;17.20;64.70;;;;;;4979092;28;20212;-67
2022/12/01 06:15:23;;;;;;;5.00;4.38;;;17.30;64.80;;;;;;4994939;28;20189;-68
2022/12/01 06:17:49;;;;;;;5.28;4.78;;;17.30;64.70;;;;;;4978588;28;20645;-67
2022/12/01 06:20:14;;;;;;;5.22;4.72;;;17.30;64.70;;;;;;4978488;28;20212;-68
2022/12/01 06:22:40;;;;;;;4.65;4.25;;;17.30;64.70;;;;;;4994803;28;20231;-67
2022/12/01 06:25:07;;;;;;;4.63;4.20;;;17.30;64.70;;;;;;4994924;28;20193;-68
2022/12/01 06:27:33;;;;;;;4.88;4.30;;;17.30;64.70;;;;;;4978233;28;20187;-68
2022/12/01 06:29:58;;;;;;;4.68;3.92;;;17.30;64.80;;;;;;4978249;28;20220;-68
2022/12/01 06:32:24;;;;;;;4.97;4.43;;;17.30;64.80;;;;;;4994919;28;20189;-68
2022/12/01 06:34:50;;;;;;;4.55;4.15;;;17.30;64.70;;;;;;4978381;28;20188;-68
2022/12/01 06:37:15;;;;;;;4.50;4.10;;;17.30;64.70;;;;;;4978046;28;20199;-67
2022/12/01 06:39:42;;;;;;;4.28;3.88;;;17.30;64.70;;;;;;4978421;28;20189;-68
2022/12/01 06:42:08;;;;;;;4.75;4.25;;;17.20;64.60;;;;;;4994259;28;20280;-68
2022/12/01 06:44:34;;;;;;;4.68;4.25;;;17.30;65.50;;;;;;4994300;28;20185;-68
2022/12/01 06:46:59;;;;;;;4.80;4.35;;;17.30;64.80;;;;;;4993879;28;20183;-68
2022/12/01 06:49:25;;;;;;;5.18;4.68;;;17.20;64.60;;;;;;4983828;28;20724;-68
2022/12/01 06:51:51;;;;;;;4.65;4.18;;;17.30;64.70;;;;;;4974754;28;20208;-68
2022/12/01 06:54:16;;;;;;;4.70;4.30;;;17.20;64.60;;;;;;4990882;28;20201;-68
2022/12/01 06:56:44;;;;;;;4.90;4.20;;;17.30;64.70;;;;;;4990503;28;20189;-69
2022/12/01 06:59:10;;;;;;;4.47;4.07;;;17.20;64.50;;;;;;4990634;28;20201;-68
2022/12/01 07:01:36;;;;;;;4.60;4.20;;;17.30;64.70;;;;;;4993751;28;20276;-68
2022/12/01 07:04:02;;;;;;;4.07;3.70;;;17.30;64.60;;;;;;4979276;28;20189;-70
2022/12/01 07:06:29;;;;;;;4.80;3.90;;;17.20;65.20;;;;;;4990900;28;20248;-68
2022/12/01 07:08:55;;;;;;;4.72;4.20;;;17.30;64.70;;;;;;4991057;28;20225;-68
2022/12/01 07:11:21;;;;;;;4.50;4.10;;;17.30;64.70;;;;;;4990185;28;20217;-68
2022/12/01 07:13:49;;;;;;;4.28;3.88;;;17.30;64.50;;;;;;4990257;28;20232;-70
2022/12/01 07:16:14;;;;;;;3.88;3.58;;;17.30;64.60;;;;;;4990115;28;20256;-68
2022/12/01 07:18:43;;;;;;;4.47;4.07;;;17.20;64.50;;;;;;4989902;28;20678;-68
2022/12/01 07:21:12;;;;;;;4.80;4.05;;;17.20;64.50;;;;;;4990119;28;20706;-68
2022/12/01 07:23:38;;;;;;;3.95;3.65;;;17.20;64.60;;;;;;4990221;28;20193;-68
2022/12/01 07:26:11;;;;;;;4.45;4.05;;;17.30;64.60;;;;;;4990090;28;20193;-68
2022/12/01 07:28:37;;;;;;;4.43;4.03;;;17.30;64.60;;;;;;4989356;28;20689;-68
2022/12/01 07:31:09;;;;;;;5.03;4.13;;;17.30;64.60;;;;;;4974821;28;20201;-68
2022/12/01 07:33:35;;;;;;;4.10;3.63;;;17.20;64.50;;;;;;4989763;28;20181;-68
2022/12/01 07:36:03;;;;;;;4.47;4.07;;;17.30;64.50;;;;;;4989952;28;20280;-68
2022/12/01 07:38:31;;;;;;;4.53;4.13;;;17.30;64.60;;;;;;5006013;28;20194;-68
2022/12/01 07:41:08;;;;;;;4.75;4.35;;;17.20;64.50;;;;;;4973240;28;20221;-68
2022/12/01 07:43:34;;;;;;;5.10;4.53;;;17.20;64.40;;;;;;4973822;28;20194;-68
2022/12/01 07:46:21;;;;;;;4.78;4.38;;;17.30;64.50;;;;;;4973466;28;20569;-68
2022/12/01 07:48:47;;;;;;;4.40;4.00;;;17.30;64.60;;;;;;4989166;28;20213;-68
2022/12/01 07:51:15;;;;;;;5.05;4.55;;;17.20;64.40;;;;;;4989539;28;20205;-68
2022/12/01 07:53:43;;;;;;;4.90;4.20;;;17.20;64.40;;;;;;5005806;28;20264;-68
2022/12/01 07:56:09;;;;;;;5.78;4.20;;;17.30;64.60;;;;;;4989664;28;20181;-68
2022/12/01 07:58:35;;;;;;;4.47;4.07;;;17.20;64.50;;;;;;4989575;28;20665;-69
2022/12/01 08:01:12;;;;;;;5.00;4.50;;;17.30;64.70;;;;;;4989219;28;20216;-69
2022/12/01 08:03:39;;;;;;;4.95;4.47;;;17.30;64.60;;;;;;4989494;28;20196;-68
2022/12/01 08:06:06;;;;;;;5.32;4.40;;;17.30;64.60;;;;;;4972960;28;20193;-68
2022/12/01 08:08:34;;;;;;;5.20;4.60;;;17.20;64.50;;;;;;4998258;28;20299;-69
2022/12/01 08:11:04;;;;;;;4.97;4.47;;;17.30;64.50;;;;;;5012047;28;20287;-68
2022/12/01 08:13:30;;;;;;;5.78;4.45;;;17.30;64.50;;;;;;5011844;28;20199;-69
2022/12/01 08:15:56;;;;;;;5.25;4.72;;;17.30;64.50;;;;;;5011827;28;20188;-68
2022/12/01 08:18:22;;;;;;;5.47;4.88;;;17.30;64.50;;;;;;5011375;28;20294;-68
2022/12/01 08:20:49;;;;;;;4.70;4.30;;;17.20;64.40;;;;;;5011784;28;20299;-69
2022/12/01 08:23:15;;;;;;;5.65;4.53;;;17.30;64.50;;;;;;5012915;28;20192;-68
2022/12/01 08:25:41;;;;;;;4.75;4.22;;;17.30;64.50;;;;;;5011730;28;20287;-68
2022/12/01 08:28:07;;;;;;;4.63;4.07;;;17.30;64.50;;;;;;5012555;28;20192;-68
2022/12/01 08:30:32;;;;;;;4.65;4.22;;;17.30;64.50;;;;;;5011636;28;20231;-70
2022/12/01 08:32:58;;;;;;;4.93;4.53;;;17.30;64.60;;;;;;5011434;28;20235;-68
2022/12/01 08:35:24;;;;;;;4.63;4.22;;;17.30;64.50;;;;;;5011719;28;20184;-68
2022/12/01 08:37:53;;;;;;;4.68;4.28;;;17.20;64.40;;;;;;5011372;28;20242;-68
2022/12/01 08:40:20;;;;;;;4.97;4.47;;;17.30;64.50;;;;;;5011522;28;20218;-68
2022/12/01 08:42:46;;;;;;;5.00;4.50;;;17.30;64.60;;;;;;5011279;28;20191;-68
2022/12/01 08:45:12;;;;;;;4.60;4.20;;;17.30;64.50;;;;;;5011289;28;20198;-68
2022/12/01 08:47:38;;;;;;;5.13;4.60;;;17.30;64.60;;;;;;5011084;28;20184;-68
2022/12/01 08:50:05;;;;;;;4.45;4.05;;;17.30;64.60;;;;;;5011426;28;20216;-68
2022/12/01 08:52:32;;;;;;;5.72;4.57;;;17.30;64.50;;;;;;5011283;28;20225;-68
2022/12/01 08:54:59;;;;;;;5.05;4.38;;;17.30;64.40;;;;;;4993995;28;20206;-68
2022/12/01 08:57:25;;;;;;;5.25;4.72;;;17.30;64.50;;;;;;4991443;28;20185;-68
2022/12/01 08:59:51;;;;;;;5.00;4.50;;;17.30;64.60;;;;;;4991480;28;20200;-68
2022/12/01 09:02:21;;;;;;;5.05;4.40;;;17.30;64.60;;;;;;4993614;28;20189;-68
2022/12/01 09:04:48;;;;;;;5.78;4.60;;;17.30;64.50;;;;;;5010386;28;20207;-68
2022/12/01 09:07:15;;;;;;;4.30;3.90;;;17.30;64.50;;;;;;5010902;28;20223;-68
2022/12/01 09:09:43;;;;;;;4.45;4.00;;;17.30;64.50;;;;;;5011095;28;20238;-68
2022/12/01 09:12:10;;;;;;;6.00;4.28;;;17.30;64.50;;;;;;5010405;22;20228;-70
2022/12/01 09:14:43;;;;;;;5.32;4.65;;;17.30;64.50;;;;;;5027388;28;20195;-70
2022/12/01 09:17:08;;;;;;;5.57;4.55;;;17.30;64.50;;;;;;5027355;28;20190;-70
2022/12/01 09:19:34;;;;;;;4.90;4.40;;;17.30;64.50;;;;;;5010839;28;20188;-70
2022/12/01 09:22:01;;;;;;;4.88;4.30;;;17.30;64.60;;;;;;4996784;28;20216;-70
2022/12/01 09:24:27;;;;;;;5.30;4.80;;;17.30;64.50;;;;;;5007711;28;20188;-70
2022/12/01 09:26:58;;;;;;;5.68;4.28;;;17.30;64.50;;;;;;5007657;28;20215;-70
2022/12/01 09:29:24;;;;;;;5.07;4.57;;;17.30;64.60;;;;;;5007313;28;20609;-71
2022/12/01 09:31:54;;;;;;;4.82;4.10;;;17.30;64.60;;;;;;5007635;28;20201;-70
2022/12/01 09:34:20;;;;;;;7.20;5.25;;;17.30;64.60;;;;;;4995477;28;20194;-70
2022/12/01 09:36:46;;;;;;;4.75;4.32;;;17.30;64.50;;;;;;4971972;28;20188;-70
2022/12/01 09:39:18;;;;;;;5.90;4.53;;;17.30;64.60;;;;;;4971585;28;20190;-70
2022/12/01 09:41:58;;;;;;;4.57;4.13;;;17.30;64.50;;;;;;4971531;28;20209;-70
2022/12/01 09:44:50;;;;;;;5.32;4.25;;;17.30;64.40;;;;;;4972008;28;20252;-70
2022/12/01 09:47:29;;;;;;;5.15;4.65;;;17.30;64.50;;;;;;4971396;28;20198;-69
2022/12/01 09:50:09;;;;;;;5.38;4.55;;;17.30;64.50;;;;;;4971771;28;20239;-70
2022/12/01 09:53:18;;;;;;;4.60;4.20;;;17.30;64.60;;;;;;4972134;28;20213;-70
2022/12/01 09:55:45;;;;;;;4.80;4.32;;;17.30;64.50;;;;;;4935210;29;20187;-70
2022/12/01 09:58:20;;;;;;;5.35;4.85;;;17.30;64.60;;;;;;4989466;28;20200;-70
2022/12/01 10:00:49;;;;;;;5.10;4.60;;;17.30;64.60;;;;;;5007404;28;20200;-70
2022/12/01 10:03:45;;;;;;;5.18;4.68;;;17.30;64.50;;;;;;4991009;28;20181;-70
2022/12/01 10:06:28;;;;;;;6.05;4.75;;;17.30;64.60;;;;;;4990908;28;20284;-70
2022/12/01 10:09:23;;;;;;;4.78;4.30;;;17.30;64.60;;;;;;4990479;28;20594;-70
2022/12/01 10:11:56;;;;;;;5.82;5.13;;;17.30;64.60;;;;;;4990726;28;20219;-70
2022/12/01 10:14:22;;;;;;;5.13;4.63;;;17.30;64.50;;;;;;5007343;28;20211;-70
2022/12/01 10:17:06;;;;;;;5.35;4.57;;;17.30;64.60;;;;;;4992066;28;20276;-70
2022/12/01 10:20:00;;;;;;;5.07;4.57;;;17.30;64.60;;;;;;4990752;28;20185;-70
2022/12/01 10:22:48;;;;;;;5.00;4.50;;;17.30;64.50;;;;;;4991994;28;20212;-70
2022/12/01 10:25:26;;;;;;;5.13;4.53;;;17.30;64.50;;;;;;4990730;28;20205;-70
2022/12/01 10:28:13;;;;;;;4.40;4.00;;;17.30;64.50;;;;;;4991764;28;20181;-70
2022/12/01 10:30:52;;;;;;;4.82;4.30;;;17.30;64.60;;;;;;4990693;28;20610;-70
2022/12/01 10:33:29;;;;;;;6.22;4.80;;;17.30;64.60;;;;;;4993241;28;20180;-70
2022/12/01 10:35:56;;;;;;;5.18;4.68;;;17.30;64.50;;;;;;5010716;28;20275;-70
2022/12/01 10:38:27;;;;;;;5.28;4.78;;;17.30;64.60;;;;;;4995167;28;20176;-70
2022/12/01 10:40:56;;;;;;;5.43;4.93;;;17.30;64.60;;;;;;4993935;28;20247;-70
2022/12/01 10:43:44;;;;;;;5.22;4.47;;;17.30;64.60;;;;;;4993965;28;20185;-70
2022/12/01 10:46:37;;;;;;;5.18;4.68;;;17.30;65.20;;;;;;4993958;28;20224;-70
2022/12/01 10:49:13;;;;;;;5.45;4.95;;;17.30;64.60;;;;;;4993633;28;20572;-70
2022/12/01 10:52:06;;;;;;;5.25;4.75;;;17.30;64.60;;;;;;4993579;28;20687;-70
2022/12/01 10:54:39;;;;;;;5.22;4.70;;;17.30;64.60;;;;;;4993831;28;20236;-70
2022/12/01 10:57:14;;;;;;;5.18;4.43;;;17.30;64.60;;;;;;4994441;28;20184;-70
2022/12/01 10:59:54;;;;;;;5.57;4.82;;;17.30;64.60;;;;;;4979365;28;20272;-70
2022/12/01 11:02:24;;;;;;;4.68;4.25;;;17.30;64.50;;;;;;4994200;28;20208;-70
2022/12/01 11:04:58;;;;;;;5.50;4.78;;;17.30;64.60;;;;;;4977968;28;20193;-70
2022/12/01 11:07:33;;;;;;;5.25;4.75;;;17.30;64.50;;;;;;4974481;28;20185;-71
2022/12/01 11:10:23;;;;;;;5.90;4.70;;;17.30;64.50;;;;;;4974497;28;20272;-70
2022/12/01 11:12:56;;;;;;;5.18;4.68;;;17.30;64.60;;;;;;4974498;28;20252;-70
2022/12/01 11:15:27;;;;;;;6.03;4.97;;;17.30;64.60;;;;;;4974498;28;20204;-70
2022/12/01 11:18:18;;;;;;;5.80;4.90;;;17.30;64.50;;;;;;4974276;28;20233;-70
2022/12/01 11:20:44;;;;;;;5.22;4.72;;;17.30;64.60;;;;;;4975506;28;20681;-70
2022/12/01 11:23:19;;;;;;;5.57;5.07;;;17.30;64.60;;;;;;4974325;28;20197;-70
2022/12/01 11:26:10;;;;;;;8.30;6.10;;;17.30;64.60;;;;;;4990532;28;20296;-70
2022/12/01 11:28:51;;;;;;;7.70;5.93;;;17.30;64.60;;;;;;4974314;28;20213;-70
2022/12/01 11:31:18;;;;;;;7.40;6.40;;;17.30;64.70;;;;;;4974195;28;20221;-71
2022/12/01 11:33:53;;;;;;;9.68;7.60;;;17.30;64.60;;;;;;4974108;28;20189;-71
2022/12/01 11:36:42;;;;;;;11.75;9.15;;;17.30;64.60;;;;;;4973705;28;20669;-71
2022/12/01 11:39:20;;;;;;;13.30;9.73;;;17.30;64.50;;;;;;4974948;28;20560;-71
2022/12/01 11:41:46;;;;;;;17.75;12.45;;;17.30;64.30;;;;;;4973919;28;20209;-70
2022/12/01 11:44:19;;;;;;;22.10;14.50;;;17.30;64.30;;;;;;4973877;28;20193;-70
2022/12/01 11:46:46;;;;;;;29.80;19.13;;;17.30;64.40;;;;;;4973919;28;20182;-71
2022/12/01 11:49:23;;;;;;;33.20;21.13;;;17.30;64.40;;;;;;4973569;28;20216;-70
2022/12/01 11:51:49;;;;;;;30.58;22.25;;;17.30;64.40;;;;;;4974290;28;20201;-70
2022/12/01 11:54:25;;;;;;;32.95;21.80;;;17.30;64.50;;;;;;4974010;28;20186;-70
2022/12/01 11:56:52;;;;;;;38.95;23.52;;;17.30;64.50;;;;;;4973872;28;20181;-70
2022/12/01 11:59:28;;;;;;;41.35;27.60;;;17.30;64.50;;;;;;4985841;28;20192;-70
2022/12/01 12:02:21;;;;;;;43.42;28.17;;;17.30;64.40;;;;;;5009172;28;20204;-70
2022/12/01 12:05:28;;;;;;;47.75;30.48;;;17.30;64.40;;;;;;5009220;28;20197;-70
2022/12/01 12:08:15;;;;;;;57.85;36.47;;;17.30;64.50;;;;;;5009302;28;20247;-70
2022/12/01 12:11:02;;;;;;;59.22;35.78;;;17.30;64.40;;;;;;4978612;28;20213;-70
2022/12/01 12:13:57;;;;;;;56.08;37.05;;;17.30;64.50;;;;;;4973306;28;20190;-71
2022/12/01 12:16:41;;;;;;;63.50;40.03;;;17.30;64.50;;;;;;4976581;28;20284;-70
2022/12/01 12:19:22;;;;;;;69.80;43.15;;;17.30;64.50;;;;;;4992302;28;20188;-71
2022/12/01 12:22:39;;;;;;;74.78;45.88;;;17.30;64.50;;;;;;4989225;28;20210;-71
2022/12/01 12:25:48;;;;;;;72.60;44.92;;;17.30;64.50;;;;;;4956373;28;20212;-71
2022/12/01 12:28:52;;;;;;;80.60;49.08;;;17.30;64.60;;;;;;4974075;28;20188;-70
2022/12/01 12:31:24;;;;;;;81.30;49.33;;;17.30;64.60;;;;;;4982682;28;20322;-68
2022/12/01 12:34:25;;;;;;;80.97;50.70;;;17.30;64.60;;;;;;5012343;28;20229;-70
2022/12/01 12:37:04;;;;;;;84.25;52.28;;;17.30;64.60;;;;;;5011870;28;20279;-71
2022/12/01 12:39:53;;;;;;;86.13;53.92;;;17.30;64.60;;;;;;5010886;28;20202;-70
2022/12/01 12:42:53;;;;;;;88.00;55.72;;;17.30;64.80;;;;;;4992216;28;20212;-70
2022/12/01 12:45:34;;;;;;;85.75;54.08;;;17.30;64.60;;;;;;4993291;28;20173;-70
2022/12/01 12:48:41;;;;;;;87.45;54.88;;;17.30;64.70;;;;;;4988885;28;20200;-70
2022/12/01 12:51:35;;;;;;;92.05;58.17;;;17.30;64.60;;;;;;4982295;28;20307;-70
2022/12/01 12:54:16;;;;;;;89.80;56.65;;;17.30;64.80;;;;;;4989880;28;20185;-71
2022/12/01 12:56:51;;;;;;;95.35;59.40;;;17.30;64.70;;;;;;4984157;28;20652;-71
2022/12/01 12:59:40;;;;;;;95.60;60.20;;;17.30;64.80;;;;;;4991845;28;20184;-70
2022/12/01 13:02:18;;;;;;;94.50;59.50;;;17.30;64.70;;;;;;4991949;28;20205;-70
2022/12/01 13:05:17;;;;;;;97.45;60.20;;;17.30;64.80;;;;;;4993165;28;20641;-71
2022/12/01 13:08:00;;;;;;;98.40;59.97;;;17.30;64.80;;;;;;4975496;28;20173;-70
2022/12/01 13:10:59;;;;;;;96.35;59.67;;;17.30;64.70;;;;;;4991643;28;20227;-70
2022/12/01 13:13:43;;;;;;;99.05;62.08;;;17.30;64.70;;;;;;4992052;28;20648;-70
2022/12/01 13:16:19;;;;;;;94.68;60.60;;;17.30;64.70;;;;;;4991923;28;20200;-69
2022/12/01 13:19:03;;;;;;;100.72;59.97;;;17.30;64.70;;;;;;4991556;28;20192;-70
2022/12/01 13:21:40;;;;;;;99.30;60.75;;;17.30;64.70;;;;;;4975850;28;20285;-71